サンフランシスコ の空港の天気 - METARとTAF

サンフランシスコ国際空港 ( KSFO / SFO ) - アメリカ合衆国 カリフォルニア州サンマテオ郡
飛行場実況気象(Metar)
観測時間03/28 13:56 PDT (03/28 20:56 UTC)
風向・風速西北西 10m/s 瞬間風速13m/s
視程10km以上
天気現象
少しの雲 雲底高度 6100m
気温18.3℃
湿度54%
気圧1022.3hPa
METARKSFO 282056Z 29019G26KT 10SM FEW200 18/09 A3019 RMK AO2 PK WND 29026/2054 SLP223 T01830089 56015
過去の天気等 Google飛行場航空写真 Wunderground天気予報

過去48時間のMETAR

飛行場予報(TAF)
発表時間: 3/28 14:01 PDT (3/28 21:01 UTC)
予報対象時間: 28日14時 PDT ~ 29日17時 PDT
風向・風速西 10m/s
視程10km以上
少しの雲 雲底高度 6,100m
28日16時 PDT から
風向・風速西 12m/s 瞬間風速 16m/s
視程10km以上
全天の4割程度の雲 雲底高度 6,100m
28日22時 PDT から
風向・風速西 9m/s 瞬間風速 12m/s
視程10km以上
少しの雲 雲底高度 6,100m
29日2時 PDT から
風向・風速西 5m/s
視程10km以上
少しの雲 雲底高度 6,100m
29日10時 PDT から
風向・風速北西 2m/s
視程10km以上
全天の4割程度の雲 雲底高度 5,490m
29日14時 PDT から
風向・風速西北西 6m/s
視程10km以上
全天の4割程度の雲 雲底高度 4,570m
全天の8割程度の雲 雲底高度 6,100m
KSFO 282101Z 2821/2924 28020KT P6SM FEW200
FM282300 28024G31KT P6SM SCT200
FM290500 28017G23KT P6SM FEW200
FM290900 27010KT P6SM FEW200
FM291700 31004KT P6SM SCT180
FM292100 29012KT P6SM SCT150 BKN200